Time,TemperatureF,DewpointF,PressureIn,WindDirection,WindDirectionDegrees,WindSpeedMPH,WindSpeedGustMPH,Humidity,HourlyPrecipIn,Conditions,Clouds,dailyrainin,SoftwareType,DateUTC
2013-07-02 00:11:00,70.0,-99.9,-100.00,North,-999,-999.0,-999.0,-999,0.00,,,0.15,,2013-07-02 04:11:00,
2013-07-02 00:22:00,70.0,-99.9,-100.00,North,-999,-999.0,-999.0,-999,0.00,,,0.15,,2013-07-02 04:22:00,
2013-07-02 00:33:00,70.0,-99.9,-100.00,North,-999,-999.0,-999.0,-999,0.00,,,0.15,,2013-07-02 04:33:00,
2013-07-02 00:42:00,70.0,-99.9,-100.00,North,-999,-999.0,-999.0,-999,0.00,,,0.15,,2013-07-02 04:42:00,
2013-07-02 01:02:00,70.0,-99.9,-100.00,North,-999,-999.0,-999.0,-999,0.00,,,0.15,,2013-07-02 05:02:00,
2013-07-02 01:11:00,70.0,-99.9,-100.00,North,-999,-999.0,-999.0,-999,0.00,,,0.15,,2013-07-02 05:11:00,
2013-07-02 01:22:00,70.0,-99.9,-100.00,North,-999,-999.0,-999.0,-999,0.00,,,0.15,,2013-07-02 05:22:00,
2013-07-02 01:32:00,70.0,-99.9,-100.00,North,-999,-999.0,-999.0,-999,0.00,,,0.15,,2013-07-02 05:32:00,
2013-07-02 01:43:00,70.0,-99.9,-100.00,North,-999,-999.0,-999.0,-999,0.00,,,0.15,,2013-07-02 05:43:00,
2013-07-02 02:02:00,70.0,-99.9,-100.00,North,-999,-999.0,-999.0,-999,0.00,,,0.15,,2013-07-02 06:02:00,
2013-07-02 02:12:00,70.0,-99.9,-100.00,North,-999,-999.0,-999.0,-999,0.00,,,0.15,,2013-07-02 06:12:00,
2013-07-02 02:23:00,70.0,-99.9,-100.00,North,-999,-999.0,-999.0,-999,0.00,,,0.15,,2013-07-02 06:23:00,
2013-07-02 02:34:00,70.0,-99.9,-100.00,North,-999,-999.0,-999.0,-999,0.00,,,0.15,,2013-07-02 06:34:00,
2013-07-02 02:43:00,70.0,-99.9,-100.00,North,-999,-999.0,-999.0,-999,0.00,,,0.15,,2013-07-02 06:43:00,
2013-07-02 03:01:00,69.0,-99.9,-100.00,North,-999,-999.0,-999.0,-999,0.00,,,0.15,,2013-07-02 07:01:00,
2013-07-02 03:12:00,69.0,-99.9,-100.00,North,-999,-999.0,-999.0,-999,0.00,,,0.15,,2013-07-02 07:12:00,
2013-07-02 03:22:00,69.0,-99.9,-100.00,North,-999,-999.0,-999.0,-999,0.00,,,0.15,,2013-07-02 07:22:00,
2013-07-02 03:34:00,69.0,-99.9,-100.00,North,-999,-999.0,-999.0,-999,0.00,,,0.15,,2013-07-02 07:34:00,
2013-07-02 03:44:00,69.0,-99.9,-100.00,North,-999,-999.0,-999.0,-999,0.00,,,0.15,,2013-07-02 07:44:00,
2013-07-02 04:02:00,69.0,-99.9,-100.00,North,-999,-999.0,-999.0,-999,0.00,,,0.15,,2013-07-02 08:02:00,
2013-07-02 04:12:00,69.0,-99.9,-100.00,North,-999,-999.0,-999.0,-999,0.00,,,0.15,,2013-07-02 08:12:00,
2013-07-02 04:22:00,69.0,-99.9,-100.00,North,-999,-999.0,-999.0,-999,0.00,,,0.15,,2013-07-02 08:22:00,
2013-07-02 04:33:00,69.0,-99.9,-100.00,North,-999,-999.0,-999.0,-999,0.00,,,0.15,,2013-07-02 08:33:00,
2013-07-02 04:44:00,69.0,-99.9,-100.00,North,-999,-999.0,-999.0,-999,0.00,,,0.15,,2013-07-02 08:44:00,
2013-07-02 05:02:00,69.0,-99.9,-100.00,North,-999,-999.0,-999.0,-999,0.00,,,0.15,,2013-07-02 09:02:00,
2013-07-02 05:12:00,69.0,-99.9,-100.00,North,-999,-999.0,-999.0,-999,0.00,,,0.15,,2013-07-02 09:12:00,
2013-07-02 05:23:00,69.0,-99.9,-100.00,North,-999,-999.0,-999.0,-999,0.00,,,0.15,,2013-07-02 09:23:00,
2013-07-02 05:33:00,69.0,-99.9,-100.00,North,-999,-999.0,-999.0,-999,0.00,,,0.15,,2013-07-02 09:33:00,
2013-07-02 05:43:00,69.0,-99.9,-100.00,North,-999,-999.0,-999.0,-999,0.00,,,0.15,,2013-07-02 09:43:00,
2013-07-02 06:02:00,70.0,-99.9,-100.00,North,-999,-999.0,-999.0,-999,0.00,,,0.15,,2013-07-02 10:02:00,
2013-07-02 06:11:00,70.0,-99.9,-100.00,North,-999,-999.0,-999.0,-999,0.00,,,0.15,,2013-07-02 10:11:00,
2013-07-02 06:22:00,70.0,-99.9,-100.00,North,-999,-999.0,-999.0,-999,0.00,,,0.15,,2013-07-02 10:22:00,
2013-07-02 06:33:00,70.0,-99.9,-100.00,North,-999,-999.0,-999.0,-999,0.00,,,0.15,,2013-07-02 10:33:00,
2013-07-02 06:44:00,70.0,-99.9,-100.00,North,-999,-999.0,-999.0,-999,0.00,,,0.15,,2013-07-02 10:44:00,
2013-07-02 07:02:00,70.0,-99.9,-100.00,North,-999,-999.0,-999.0,-999,0.00,,,0.14,,2013-07-02 11:02:00,
2013-07-02 07:11:00,70.0,-99.9,-100.00,North,-999,-999.0,-999.0,-999,0.00,,,0.14,,2013-07-02 11:11:00,
2013-07-02 07:22:00,70.0,-99.9,-100.00,North,-999,-999.0,-999.0,-999,0.00,,,0.14,,2013-07-02 11:22:00,
2013-07-02 07:33:00,70.0,-99.9,-100.00,North,-999,-999.0,-999.0,-999,0.00,,,0.14,,2013-07-02 11:33:00,
2013-07-02 07:42:00,70.0,-99.9,-100.00,North,-999,-999.0,-999.0,-999,0.00,,,0.14,,2013-07-02 11:42:00,
2013-07-02 08:02:00,74.0,-99.9,-100.00,North,-999,-999.0,-999.0,-999,0.00,,,0.14,,2013-07-02 12:02:00,
2013-07-02 08:12:00,74.0,-99.9,-100.00,North,-999,-999.0,-999.0,-999,0.00,,,0.14,,2013-07-02 12:12:00,
2013-07-02 08:23:00,74.0,-99.9,-100.00,North,-999,-999.0,-999.0,-999,0.00,,,0.14,,2013-07-02 12:23:00,
2013-07-02 08:33:00,74.0,-99.9,-100.00,North,-999,-999.0,-999.0,-999,0.00,,,0.14,,2013-07-02 12:33:00,
2013-07-02 08:43:00,74.0,-99.9,-100.00,North,-999,-999.0,-999.0,-999,0.00,,,0.14,,2013-07-02 12:43:00,
2013-07-02 09:22:00,66.0,-99.9,-100.00,North,-999,-999.0,-999.0,-999,0.00,,,0.14,,2013-07-02 13:22:00,
2013-07-02 09:44:00,66.0,-99.9,-100.00,North,-999,-999.0,-999.0,-999,0.00,,,0.14,,2013-07-02 13:44:00,
2013-07-02 10:02:00,63.0,-99.9,-100.00,North,-999,-999.0,-999.0,-999,0.00,,,0.14,,2013-07-02 14:02:00,
2013-07-02 10:12:00,63.0,-99.9,-100.00,North,-999,-999.0,-999.0,-999,0.00,,,0.14,,2013-07-02 14:12:00,
2013-07-02 10:22:00,63.0,-99.9,-100.00,North,-999,-999.0,-999.0,-999,0.00,,,0.14,,2013-07-02 14:22:00,
2013-07-02 10:34:00,63.0,-99.9,-100.00,North,-999,-999.0,-999.0,-999,0.00,,,0.14,,2013-07-02 14:34:00,
2013-07-02 10:43:00,63.0,-99.9,-100.00,North,-999,-999.0,-999.0,-999,0.00,,,0.14,,2013-07-02 14:43:00,
2013-07-02 11:02:00,61.0,-99.9,-100.00,North,-999,-999.0,-999.0,-999,0.01,,,0.15,,2013-07-02 15:02:00,
2013-07-02 11:12:00,61.0,-99.9,-100.00,North,-999,-999.0,-999.0,-999,0.01,,,0.15,,2013-07-02 15:12:00,
2013-07-02 11:23:00,61.0,-99.9,-100.00,North,-999,-999.0,-999.0,-999,0.01,,,0.15,,2013-07-02 15:23:00,
2013-07-02 11:34:00,61.0,-99.9,-100.00,North,-999,-999.0,-999.0,-999,0.01,,,0.15,,2013-07-02 15:34:00,
2013-07-02 11:44:00,61.0,-99.9,-100.00,North,-999,-999.0,-999.0,-999,0.01,,,0.15,,2013-07-02 15:44:00,
2013-07-02 12:12:00,61.0,-99.9,-100.00,North,-999,-999.0,-999.0,-999,0.12,,,0.27,,2013-07-02 16:12:00,
2013-07-02 12:22:00,61.0,-99.9,-100.00,North,-999,-999.0,-999.0,-999,0.12,,,0.27,,2013-07-02 16:22:00,
2013-07-02 12:34:00,61.0,-99.9,-100.00,North,-999,-999.0,-999.0,-999,0.12,,,0.27,,2013-07-02 16:34:00,
2013-07-02 12:43:00,61.0,-99.9,-100.00,North,-999,-999.0,-999.0,-999,0.12,,,0.27,,2013-07-02 16:43:00,
2013-07-02 13:12:00,62.0,-99.9,-100.00,North,-999,-999.0,-999.0,-999,0.02,,,0.29,,2013-07-02 17:12:00,
2013-07-02 13:22:00,62.0,-99.9,-100.00,North,-999,-999.0,-999.0,-999,0.02,,,0.29,,2013-07-02 17:22:00,
2013-07-02 13:33:00,62.0,-99.9,-100.00,North,-999,-999.0,-999.0,-999,0.02,,,0.29,,2013-07-02 17:33:00,
2013-07-02 13:44:00,62.0,-99.9,-100.00,North,-999,-999.0,-999.0,-999,0.02,,,0.29,,2013-07-02 17:44:00,
2013-07-02 14:13:00,62.0,-99.9,-100.00,North,-999,-999.0,-999.0,-999,0.03,,,0.32,,2013-07-02 18:13:00,
2013-07-02 14:23:00,62.0,-99.9,-100.00,North,-999,-999.0,-999.0,-999,0.03,,,0.32,,2013-07-02 18:23:00,
2013-07-02 14:34:00,62.0,-99.9,-100.00,North,-999,-999.0,-999.0,-999,0.03,,,0.32,,2013-07-02 18:34:00,
2013-07-02 14:44:00,62.0,-99.9,-100.00,North,-999,-999.0,-999.0,-999,0.03,,,0.32,,2013-07-02 18:44:00,
2013-07-02 15:12:00,63.0,-99.9,-100.00,North,-999,-999.0,-999.0,-999,0.05,,,0.37,,2013-07-02 19:12:00,
2013-07-02 15:22:00,63.0,-99.9,-100.00,North,-999,-999.0,-999.0,-999,0.05,,,0.37,,2013-07-02 19:22:00,
2013-07-02 15:34:00,63.0,-99.9,-100.00,North,-999,-999.0,-999.0,-999,0.05,,,0.37,,2013-07-02 19:34:00,
2013-07-02 15:43:00,63.0,-99.9,-100.00,North,-999,-999.0,-999.0,-999,0.05,,,0.37,,2013-07-02 19:43:00,
2013-07-02 16:11:00,63.0,-99.9,-100.00,North,-999,-999.0,-999.0,-999,0.00,,,0.37,,2013-07-02 20:11:00,
2013-07-02 16:22:00,63.0,-99.9,-100.00,North,-999,-999.0,-999.0,-999,0.00,,,0.37,,2013-07-02 20:22:00,
2013-07-02 16:33:00,63.0,-99.9,-100.00,North,-999,-999.0,-999.0,-999,0.00,,,0.37,,2013-07-02 20:33:00,
2013-07-02 16:43:00,63.0,-99.9,-100.00,North,-999,-999.0,-999.0,-999,0.00,,,0.37,,2013-07-02 20:43:00,
2013-07-02 17:12:00,62.0,-99.9,-100.00,North,-999,-999.0,-999.0,-999,0.03,,,0.40,,2013-07-02 21:12:00,
2013-07-02 17:22:00,62.0,-99.9,-100.00,North,-999,-999.0,-999.0,-999,0.03,,,0.40,,2013-07-02 21:22:00,
2013-07-02 17:33:00,62.0,-99.9,-100.00,North,-999,-999.0,-999.0,-999,0.03,,,0.40,,2013-07-02 21:33:00,
2013-07-02 17:44:00,62.0,-99.9,-100.00,North,-999,-999.0,-999.0,-999,0.03,,,0.40,,2013-07-02 21:44:00,
2013-07-02 18:11:00,62.0,-99.9,-100.00,North,-999,-999.0,-999.0,-999,0.00,,,0.40,,2013-07-02 22:11:00,
2013-07-02 18:22:00,62.0,-99.9,-100.00,North,-999,-999.0,-999.0,-999,0.00,,,0.40,,2013-07-02 22:22:00,
2013-07-02 18:34:00,62.0,-99.9,-100.00,North,-999,-999.0,-999.0,-999,0.00,,,0.40,,2013-07-02 22:34:00,
2013-07-02 18:43:00,62.0,-99.9,-100.00,North,-999,-999.0,-999.0,-999,0.00,,,0.40,,2013-07-02 22:43:00,
2013-07-02 19:02:00,62.0,-99.9,-100.00,North,-999,-999.0,-999.0,-999,0.00,,,0.40,,2013-07-02 23:02:00,
2013-07-02 19:12:00,62.0,-99.9,-100.00,North,-999,-999.0,-999.0,-999,0.00,,,0.40,,2013-07-02 23:12:00,
2013-07-02 19:22:00,62.0,-99.9,-100.00,North,-999,-999.0,-999.0,-999,0.00,,,0.40,,2013-07-02 23:22:00,
2013-07-02 19:34:00,62.0,-99.9,-100.00,North,-999,-999.0,-999.0,-999,0.00,,,0.40,,2013-07-02 23:34:00,
2013-07-02 19:44:00,62.0,-99.9,-100.00,North,-999,-999.0,-999.0,-999,0.00,,,0.40,,2013-07-02 23:44:00,
2013-07-02 20:02:00,61.0,-99.9,-100.00,North,-999,-999.0,-999.0,-999,0.00,,,0.28,,2013-07-03 00:02:00,
2013-07-02 20:12:00,61.0,-99.9,-100.00,North,-999,-999.0,-999.0,-999,0.00,,,0.28,,2013-07-03 00:12:00,
2013-07-02 20:22:00,61.0,-99.9,-100.00,North,-999,-999.0,-999.0,-999,0.00,,,0.28,,2013-07-03 00:22:00,
2013-07-02 20:33:00,61.0,-99.9,-100.00,North,-999,-999.0,-999.0,-999,0.00,,,0.28,,2013-07-03 00:33:00,
2013-07-02 20:44:00,61.0,-99.9,-100.00,North,-999,-999.0,-999.0,-999,0.00,,,0.28,,2013-07-03 00:44:00,
2013-07-02 21:11:00,61.0,-99.9,-100.00,North,-999,-999.0,-999.0,-999,0.00,,,0.26,,2013-07-03 01:11:00,
2013-07-02 21:22:00,61.0,-99.9,-100.00,North,-999,-999.0,-999.0,-999,0.00,,,0.26,,2013-07-03 01:22:00,
2013-07-02 21:33:00,61.0,-99.9,-100.00,North,-999,-999.0,-999.0,-999,0.00,,,0.26,,2013-07-03 01:33:00,
2013-07-02 21:43:00,61.0,-99.9,-100.00,North,-999,-999.0,-999.0,-999,0.00,,,0.26,,2013-07-03 01:43:00,
2013-07-02 21:45:00,61.0,-99.9,-100.00,North,-999,-999.0,-999.0,-999,0.02,,,0.28,,2013-07-03 01:45:00,
2013-07-02 22:07:00,61.0,-99.9,-100.00,North,-999,-999.0,-999.0,-999,0.02,,,0.28,,2013-07-03 02:07:00,
2013-07-02 22:16:00,61.0,-99.9,-100.00,North,-999,-999.0,-999.0,-999,0.02,,,0.28,,2013-07-03 02:16:00,
2013-07-02 22:30:00,61.0,-99.9,-100.00,North,-999,-999.0,-999.0,-999,0.02,,,0.28,,2013-07-03 02:30:00,
2013-07-02 22:41:00,61.0,-99.9,-100.00,North,-999,-999.0,-999.0,-999,0.02,,,0.28,,2013-07-03 02:41:00,
2013-07-02 23:09:00,61.0,-99.9,-100.00,North,-999,-999.0,-999.0,-999,0.04,,,0.32,,2013-07-03 03:09:00,
2013-07-02 23:37:00,61.0,-99.9,-100.00,North,-999,-999.0,-999.0,-999,0.04,,,0.32,,2013-07-03 03:37:00,